Time;durP1;ratioP1;P1;durP2;ratioP2;P2;SDS_P1;SDS_P2;PMS_P1;PMS_P2;Temp;Humidity;BMP_temperature;BMP_pressure;BME280_temperature;BME280_humidity;BME280_pressure;Samples;Min_cycle;Max_cycle;Signal;HPM_P1;HPM_P2
2022/11/30 00:01:23;;;;;;;6.43;5.82;;;19.40;58.20;;;;;;5074070;27;43324;-59
2022/11/30 00:03:55;;;;;;;6.78;6.18;;;19.40;58.10;;;;;;5070229;27;43622;-59
2022/11/30 00:06:24;;;;;;;6.45;5.85;;;19.40;58.20;;;;;;5068381;28;43904;-59
2022/11/30 00:08:56;;;;;;;6.90;6.30;;;19.40;58.10;;;;;;5073917;28;44072;-60
2022/11/30 00:11:25;;;;;;;6.53;5.78;;;19.40;58.10;;;;;;5073252;27;43431;-60
2022/11/30 00:13:53;;;;;;;7.80;6.53;;;19.30;58.10;;;;;;5070100;28;43484;-59
2022/11/30 00:16:21;;;;;;;6.60;6.00;;;19.30;58.10;;;;;;5062930;28;44974;-59
2022/11/30 00:18:48;;;;;;;6.05;5.50;;;19.30;58.10;;;;;;5073065;27;43699;-59
2022/11/30 00:21:16;;;;;;;6.80;6.10;;;19.30;58.20;;;;;;5072937;27;43435;-59
2022/11/30 00:23:45;;;;;;;6.68;6.07;;;19.30;58.10;;;;;;5070002;28;43545;-58
2022/11/30 00:26:15;;;;;;;7.03;6.43;;;19.30;58.30;;;;;;5078298;28;44720;-58
2022/11/30 00:28:46;;;;;;;7.10;6.45;;;19.30;58.20;;;;;;5073582;27;43901;-59
2022/11/30 00:31:16;;;;;;;7.13;6.40;;;19.30;58.10;;;;;;5065830;28;43416;-60
2022/11/30 00:33:44;;;;;;;6.47;5.90;;;19.30;58.10;;;;;;5070276;28;43632;-60
2022/11/30 00:36:16;;;;;;;6.78;6.18;;;19.30;58.10;;;;;;5104820;27;43874;-60
2022/11/30 00:38:44;;;;;;;6.57;5.97;;;19.30;58.10;;;;;;5072728;27;43821;-60
2022/11/30 00:41:11;;;;;;;7.00;6.28;;;19.30;58.20;;;;;;5070908;27;43394;-60
2022/11/30 00:43:39;;;;;;;6.82;6.22;;;19.30;58.10;;;;;;5070031;28;43435;-60
2022/11/30 00:46:10;;;;;;;6.45;5.90;;;19.30;58.10;;;;;;5072472;28;44803;-59
2022/11/30 00:48:38;;;;;;;6.82;6.20;;;19.20;58.10;;;;;;5076541;27;43915;-59
2022/11/30 00:51:08;;;;;;;6.63;6.03;;;19.30;58.10;;;;;;5073426;28;43451;-59
2022/11/30 00:53:35;;;;;;;6.50;5.90;;;19.20;58.10;;;;;;5072623;28;43461;-59
2022/11/30 00:56:03;;;;;;;6.63;6.00;;;19.20;58.10;;;;;;5077063;27;44721;-59
2022/11/30 00:58:31;;;;;;;7.25;6.55;;;19.20;58.10;;;;;;5076947;27;43793;-59
2022/11/30 01:00:58;;;;;;;6.50;5.90;;;19.20;58.20;;;;;;5073241;27;43437;-59
2022/11/30 01:03:25;;;;;;;6.78;6.10;;;19.20;58.20;;;;;;5081103;28;43627;-59
2022/11/30 01:05:53;;;;;;;7.10;6.47;;;19.20;58.10;;;;;;5069235;28;44026;-60
2022/11/30 01:08:20;;;;;;;6.88;6.28;;;19.20;58.20;;;;;;5076087;27;43914;-59
2022/11/30 01:10:52;;;;;;;6.68;6.07;;;19.20;58.10;;;;;;5073067;27;43464;-59
2022/11/30 01:13:19;;;;;;;6.78;6.18;;;19.20;58.20;;;;;;5072872;28;43382;-59
2022/11/30 01:15:46;;;;;;;6.50;5.90;;;19.20;58.20;;;;;;5069414;28;44763;-59
2022/11/30 01:18:14;;;;;;;7.00;6.40;;;19.10;58.20;;;;;;5076239;27;44006;-59
2022/11/30 01:20:42;;;;;;;6.28;5.78;;;19.10;58.10;;;;;;5072491;28;43389;-59
2022/11/30 01:23:10;;;;;;;6.18;5.57;;;19.20;58.20;;;;;;5073177;28;43493;-60
2022/11/30 01:25:39;;;;;;;6.32;5.75;;;19.10;58.10;;;;;;5075230;27;45013;-60
2022/11/30 01:28:08;;;;;;;6.95;6.30;;;19.10;58.10;;;;;;5074281;27;44703;-59
2022/11/30 01:30:36;;;;;;;6.20;5.70;;;19.10;58.10;;;;;;5079875;27;43548;-60
2022/11/30 01:33:04;;;;;;;6.40;5.80;;;19.10;58.10;;;;;;5073904;28;43477;-59
2022/11/30 01:35:32;;;;;;;6.47;5.88;;;19.10;58.10;;;;;;5075539;27;45120;-60
2022/11/30 01:37:59;;;;;;;6.43;5.82;;;19.10;58.10;;;;;;5075214;27;43995;-59
2022/11/30 01:40:26;;;;;;;6.75;6.15;;;19.10;58.10;;;;;;5072575;28;43429;-60
2022/11/30 01:42:54;;;;;;;6.05;5.60;;;19.10;58.20;;;;;;5072951;28;43547;-60
2022/11/30 01:45:22;;;;;;;6.40;5.80;;;19.00;58.10;;;;;;5082287;27;44852;-60
2022/11/30 01:47:55;;;;;;;6.85;6.25;;;19.10;58.10;;;;;;5072430;28;43784;-59
2022/11/30 01:50:31;;;;;;;6.50;5.97;;;19.10;58.50;;;;;;5076190;28;43496;-59
2022/11/30 01:53:00;;;;;;;6.68;6.07;;;19.00;58.10;;;;;;5083068;28;43461;-59
2022/11/30 01:55:32;;;;;;;6.80;6.20;;;19.00;58.20;;;;;;5076382;27;44819;-60
2022/11/30 01:58:06;;;;;;;6.80;6.20;;;19.10;58.10;;;;;;5072093;27;43892;-59
2022/11/30 02:00:33;;;;;;;6.35;5.75;;;19.00;58.10;;;;;;5073255;28;43423;-60
2022/11/30 02:03:27;;;;;;;6.47;5.95;;;19.00;58.10;;;;;;5074305;28;43632;-60
2022/11/30 02:05:55;;;;;;;6.40;5.80;;;19.00;58.10;;;;;;5071575;28;44035;-60
2022/11/30 02:08:23;;;;;;;6.93;6.22;;;19.00;58.10;;;;;;5071886;28;43756;-60
2022/11/30 02:10:57;;;;;;;6.70;6.10;;;19.00;58.10;;;;;;5083302;27;43507;-60
2022/11/30 02:13:53;;;;;;;6.68;6.07;;;19.00;58.10;;;;;;5074747;27;43445;-60
2022/11/30 02:16:32;;;;;;;6.82;6.22;;;19.00;58.10;;;;;;5071800;27;44956;-60
2022/11/30 02:19:40;;;;;;;6.55;6.00;;;19.00;58.20;;;;;;5074614;27;43425;-60
2022/11/30 02:22:29;;;;;;;5.85;5.35;;;18.90;58.10;;;;;;5071845;28;43420;-60
2022/11/30 02:25:18;;;;;;;6.82;6.22;;;18.90;58.10;;;;;;5075643;27;43521;-60
2022/11/30 02:28:04;;;;;;;6.30;5.78;;;18.90;58.20;;;;;;5071420;28;44978;-60
2022/11/30 02:30:36;;;;;;;6.22;5.72;;;18.90;58.20;;;;;;5070194;28;43414;-60
2022/11/30 02:33:12;;;;;;;6.20;5.70;;;18.90;58.30;;;;;;5074225;27;43382;-60
2022/11/30 02:35:44;;;;;;;6.20;5.60;;;18.90;58.20;;;;;;5072068;28;44042;-60
2022/11/30 02:38:20;;;;;;;5.82;5.32;;;18.90;58.20;;;;;;5074382;28;44841;-60
2022/11/30 02:40:48;;;;;;;6.20;5.70;;;18.90;58.20;;;;;;5074341;27;44005;-60
2022/11/30 02:43:18;;;;;;;6.13;5.63;;;18.90;58.20;;;;;;5071972;28;43402;-59
2022/11/30 02:46:22;;;;;;;6.07;5.57;;;18.90;58.20;;;;;;5072377;28;43404;-59
2022/11/30 02:49:06;;;;;;;6.35;5.75;;;18.90;58.10;;;;;;5069736;28;44709;-60
2022/11/30 02:51:37;;;;;;;6.03;5.53;;;18.90;58.20;;;;;;5071523;28;45261;-60
2022/11/30 02:54:05;;;;;;;6.13;5.63;;;18.90;58.30;;;;;;5073842;28;43469;-59
2022/11/30 02:56:33;;;;;;;5.85;5.35;;;18.80;58.20;;;;;;5075599;27;43443;-60
2022/11/30 02:59:00;;;;;;;6.20;5.70;;;18.80;58.30;;;;;;5071132;28;44682;-59
2022/11/30 03:01:28;;;;;;;5.97;5.47;;;18.80;58.30;;;;;;5071438;28;43965;-60
2022/11/30 03:03:56;;;;;;;6.40;5.85;;;18.80;58.30;;;;;;5075512;27;43389;-60
2022/11/30 03:06:23;;;;;;;5.88;5.38;;;18.80;58.30;;;;;;5074590;27;43488;-60
2022/11/30 03:08:51;;;;;;;6.03;5.53;;;18.80;58.30;;;;;;5078074;27;44988;-60
2022/11/30 03:11:18;;;;;;;6.40;5.80;;;18.80;58.30;;;;;;5070528;28;44030;-59
2022/11/30 03:13:45;;;;;;;6.10;5.60;;;18.80;58.90;;;;;;5074510;27;43420;-60
2022/11/30 03:16:13;;;;;;;6.00;5.50;;;18.80;58.30;;;;;;5074730;27;43550;-60
2022/11/30 03:18:40;;;;;;;6.43;5.82;;;18.80;58.20;;;;;;5070820;28;44679;-60
2022/11/30 03:21:10;;;;;;;5.72;5.30;;;18.80;58.20;;;;;;5070843;28;43903;-60
2022/11/30 03:23:38;;;;;;;6.45;5.88;;;18.80;58.20;;;;;;5069949;27;43497;-60
2022/11/30 03:26:07;;;;;;;5.68;5.18;;;18.80;58.20;;;;;;5072305;28;43567;-59
2022/11/30 03:28:36;;;;;;;6.25;5.65;;;18.80;58.30;;;;;;5070113;28;44676;-59
2022/11/30 03:31:03;;;;;;;5.82;5.32;;;18.70;58.30;;;;;;5072036;28;44794;-60
2022/11/30 03:33:31;;;;;;;6.10;5.60;;;18.70;58.30;;;;;;5074453;27;43405;-59
2022/11/30 03:36:00;;;;;;;6.30;5.75;;;18.70;58.30;;;;;;5073845;27;43901;-59
2022/11/30 03:38:28;;;;;;;5.85;5.35;;;18.70;58.30;;;;;;5069972;28;43912;-59
2022/11/30 03:41:03;;;;;;;6.60;5.90;;;18.70;58.30;;;;;;5072070;28;43665;-60
2022/11/30 03:43:31;;;;;;;5.95;5.13;;;18.70;58.20;;;;;;5074196;27;43386;-59
2022/11/30 03:45:59;;;;;;;6.57;5.97;;;18.70;58.30;;;;;;5072715;27;43536;-60
2022/11/30 03:48:27;;;;;;;5.93;5.43;;;18.70;58.20;;;;;;5077421;28;44724;-60
2022/11/30 03:50:55;;;;;;;5.70;5.20;;;18.70;58.30;;;;;;5074144;27;43978;-60
2022/11/30 03:53:24;;;;;;;6.00;5.50;;;18.70;58.30;;;;;;5081297;27;43390;-59
2022/11/30 03:55:53;;;;;;;5.90;5.40;;;18.70;58.30;;;;;;5071832;27;43467;-60
2022/11/30 03:58:22;;;;;;;5.95;5.45;;;18.60;58.30;;;;;;5069913;28;44994;-60
2022/11/30 04:00:58;;;;;;;6.03;5.53;;;18.70;58.30;;;;;;5073994;28;43964;-59
2022/11/30 04:03:25;;;;;;;6.18;5.57;;;18.70;58.30;;;;;;5072372;28;43479;-59
2022/11/30 04:05:52;;;;;;;5.50;5.10;;;18.70;58.30;;;;;;5070141;28;43561;-59
2022/11/30 04:08:20;;;;;;;6.25;5.65;;;18.70;58.30;;;;;;5070415;28;44742;-59
2022/11/30 04:10:50;;;;;;;6.38;5.85;;;18.70;58.30;;;;;;5073679;27;43964;-59
2022/11/30 04:13:19;;;;;;;5.70;5.20;;;18.70;58.40;;;;;;5073591;27;43399;-60
2022/11/30 04:15:48;;;;;;;6.32;5.72;;;18.70;58.30;;;;;;5070273;28;43627;-60
2022/11/30 04:18:17;;;;;;;6.10;5.50;;;18.60;58.90;;;;;;5070056;28;44956;-59
2022/11/30 04:20:44;;;;;;;6.50;5.90;;;18.60;58.30;;;;;;5074366;27;43427;-59
2022/11/30 04:23:12;;;;;;;6.70;6.07;;;18.60;58.40;;;;;;5074523;27;43392;-59
2022/11/30 04:25:40;;;;;;;5.65;5.15;;;18.60;58.40;;;;;;5073783;28;43589;-60
2022/11/30 04:28:09;;;;;;;6.32;5.80;;;18.60;58.40;;;;;;5074687;28;45139;-60
2022/11/30 04:30:36;;;;;;;6.03;5.43;;;18.60;58.30;;;;;;5076844;27;43975;-60
2022/11/30 04:33:06;;;;;;;6.07;5.47;;;18.60;58.40;;;;;;5074222;28;43506;-60
2022/11/30 04:35:37;;;;;;;6.60;6.00;;;18.60;58.40;;;;;;5073695;28;43435;-59
2022/11/30 04:38:04;;;;;;;;;;;18.60;58.30;;;;;;5075959;28;44994;-60
2022/11/30 04:40:32;;;;;;;5.93;5.43;;;18.60;58.40;;;;;;5076866;27;43771;-59
2022/11/30 04:42:59;;;;;;;6.43;5.82;;;18.50;58.40;;;;;;5075694;27;43474;-60
2022/11/30 04:45:27;;;;;;;6.68;6.07;;;18.50;58.40;;;;;;5073506;28;43589;-59
2022/11/30 04:48:02;;;;;;;6.50;5.90;;;18.50;58.40;;;;;;5076190;28;44713;-59
2022/11/30 04:50:30;;;;;;;5.97;5.47;;;18.50;58.40;;;;;;5076746;27;43505;-60
2022/11/30 04:52:58;;;;;;;6.50;5.90;;;18.50;58.40;;;;;;5073916;27;43525;-60
2022/11/30 04:55:25;;;;;;;6.18;5.68;;;18.50;58.40;;;;;;5073273;28;43438;-59
2022/11/30 04:57:53;;;;;;;6.53;5.93;;;18.50;58.40;;;;;;5076460;28;43908;-60
2022/11/30 05:00:20;;;;;;;6.40;5.90;;;18.50;58.40;;;;;;5076305;27;43813;-59
2022/11/30 05:02:48;;;;;;;6.60;6.00;;;18.50;58.40;;;;;;5073301;28;43422;-59
2022/11/30 05:05:19;;;;;;;7.05;6.40;;;18.50;58.40;;;;;;5080913;28;43403;-60
2022/11/30 05:07:54;;;;;;;6.68;6.07;;;18.50;58.40;;;;;;5070358;28;45032;-59
2022/11/30 05:10:21;;;;;;;6.88;6.28;;;18.50;58.40;;;;;;5076284;27;44006;-59
2022/11/30 05:12:49;;;;;;;6.47;5.88;;;18.40;58.40;;;;;;5072766;28;43481;-60
2022/11/30 05:15:17;;;;;;;7.00;6.30;;;18.50;58.40;;;;;;5073532;28;43447;-60
2022/11/30 05:17:44;;;;;;;6.25;5.75;;;18.50;58.40;;;;;;5077069;27;43782;-59
2022/11/30 05:20:13;;;;;;;6.95;6.25;;;18.40;58.50;;;;;;5074280;28;43757;-59
2022/11/30 05:22:40;;;;;;;7.20;6.50;;;18.50;58.50;;;;;;5072776;28;43391;-59
2022/11/30 05:25:08;;;;;;;6.75;6.15;;;18.40;58.30;;;;;;5074105;28;43503;-60
2022/11/30 05:27:36;;;;;;;7.15;6.45;;;18.50;58.50;;;;;;5076232;27;44936;-59
2022/11/30 05:30:04;;;;;;;6.45;5.88;;;18.40;58.40;;;;;;5076054;27;43462;-59
2022/11/30 05:32:32;;;;;;;6.82;6.22;;;18.40;58.50;;;;;;5072214;28;43442;-59
2022/11/30 05:34:59;;;;;;;7.00;6.40;;;18.40;58.40;;;;;;5074218;28;43620;-60
2022/11/30 05:37:27;;;;;;;7.25;6.55;;;18.40;58.50;;;;;;5081626;27;45009;-59
2022/11/30 05:39:54;;;;;;;7.05;6.45;;;18.40;58.50;;;;;;5074996;27;43688;-59
2022/11/30 05:42:22;;;;;;;7.38;6.68;;;18.40;58.40;;;;;;5072398;28;43933;-59
2022/11/30 05:44:49;;;;;;;6.85;6.25;;;18.40;58.50;;;;;;5073887;28;43425;-60
2022/11/30 05:47:17;;;;;;;7.32;6.63;;;18.40;58.40;;;;;;5076021;27;44965;-60
2022/11/30 05:49:44;;;;;;;7.10;6.40;;;18.40;58.50;;;;;;5078450;27;43679;-59
2022/11/30 05:52:12;;;;;;;6.93;6.22;;;18.40;58.50;;;;;;5076707;28;43482;-60
2022/11/30 05:54:39;;;;;;;6.78;6.18;;;18.40;58.40;;;;;;5076408;27;43473;-60
2022/11/30 05:57:07;;;;;;;7.28;6.57;;;18.40;58.50;;;;;;5076045;27;43865;-59
2022/11/30 05:59:34;;;;;;;7.10;6.43;;;18.30;58.40;;;;;;5074508;27;43375;-60
2022/11/30 06:02:02;;;;;;;7.65;6.85;;;18.40;58.50;;;;;;5071572;27;43983;-59
2022/11/30 06:04:29;;;;;;;7.35;6.55;;;18.30;58.40;;;;;;5078699;27;43572;-59
2022/11/30 06:06:57;;;;;;;7.18;6.47;;;18.30;58.50;;;;;;5083493;27;44669;-59
2022/11/30 06:09:24;;;;;;;7.40;6.70;;;18.30;58.50;;;;;;5071506;27;43632;-59
2022/11/30 06:11:52;;;;;;;7.40;6.70;;;18.30;58.50;;;;;;5070326;28;43391;-59
2022/11/30 06:14:19;;;;;;;7.40;6.70;;;18.30;59.00;;;;;;5078216;28;43555;-60
2022/11/30 06:16:46;;;;;;;7.40;6.57;;;18.30;58.40;;;;;;5075319;27;44815;-59
2022/11/30 06:19:14;;;;;;;7.00;6.40;;;18.40;58.30;;;;;;5069601;27;43983;-59
2022/11/30 06:21:41;;;;;;;7.25;6.55;;;18.40;58.30;;;;;;5074043;28;43435;-59
2022/11/30 06:24:09;;;;;;;7.18;6.47;;;18.40;58.30;;;;;;5081653;27;43414;-59
2022/11/30 06:26:36;;;;;;;7.30;6.60;;;18.40;58.30;;;;;;5075132;27;43883;-59
2022/11/30 06:29:04;;;;;;;7.35;6.68;;;18.40;58.30;;;;;;5070315;27;43822;-59
2022/11/30 06:31:31;;;;;;;7.68;6.97;;;18.40;58.30;;;;;;5074242;28;43424;-59
2022/11/30 06:33:59;;;;;;;7.50;6.80;;;18.40;58.30;;;;;;5082957;27;43582;-59
2022/11/30 06:36:26;;;;;;;6.95;6.25;;;18.40;58.30;;;;;;5075633;27;43901;-59
2022/11/30 06:39:02;;;;;;;7.35;6.65;;;18.30;58.30;;;;;;5073573;28;43936;-59
2022/11/30 06:41:29;;;;;;;7.32;6.63;;;18.30;58.30;;;;;;5076308;28;43518;-60
2022/11/30 06:43:57;;;;;;;7.43;6.72;;;18.30;58.40;;;;;;5081439;27;43438;-60
2022/11/30 06:46:25;;;;;;;7.75;6.70;;;18.20;58.40;;;;;;5073624;27;45055;-60
2022/11/30 06:48:53;;;;;;;8.77;6.90;;;18.20;58.50;;;;;;5069081;28;43483;-59
2022/11/30 06:51:20;;;;;;;6.88;6.28;;;18.30;58.50;;;;;;5074846;28;43531;-59
2022/11/30 06:53:48;;;;;;;6.45;5.85;;;18.30;58.50;;;;;;5073871;27;43567;-59
2022/11/30 06:56:15;;;;;;;7.70;7.00;;;18.30;58.40;;;;;;5073916;27;44700;-60
2022/11/30 06:58:43;;;;;;;7.32;6.63;;;18.30;58.50;;;;;;5072754;28;43450;-59
2022/11/30 07:01:13;;;;;;;7.13;6.45;;;18.30;58.50;;;;;;5081283;27;43444;-60
2022/11/30 07:03:41;;;;;;;7.47;6.65;;;18.30;58.50;;;;;;5080432;28;43502;-60
2022/11/30 07:06:11;;;;;;;6.97;6.28;;;18.30;58.50;;;;;;5072475;27;44054;-60
2022/11/30 07:08:39;;;;;;;7.05;6.45;;;18.30;58.50;;;;;;5071303;28;43400;-59
2022/11/30 07:11:08;;;;;;;6.95;6.28;;;18.30;58.50;;;;;;5079496;27;43477;-60
2022/11/30 07:13:36;;;;;;;7.35;6.65;;;18.30;58.50;;;;;;5073834;27;43716;-60
2022/11/30 07:16:05;;;;;;;6.72;6.13;;;18.20;58.50;;;;;;5070615;27;44816;-60
2022/11/30 07:18:33;;;;;;;7.20;6.50;;;18.20;58.50;;;;;;5068746;28;44172;-60
2022/11/30 07:21:03;;;;;;;7.03;6.38;;;18.20;58.50;;;;;;5079727;27;43481;-60
2022/11/30 07:26:23;;;;;;;7.07;6.38;;;18.20;58.80;;;;;;5068329;28;45292;-60
2022/11/30 07:28:57;;;;;;;7.28;6.57;;;18.20;58.60;;;;;;5073892;28;43406;-59
2022/11/30 07:31:29;;;;;;;7.05;6.35;;;18.20;58.60;;;;;;5075819;28;43471;-60
2022/11/30 07:33:58;;;;;;;6.50;5.88;;;18.20;58.70;;;;;;5071560;27;43388;-60
2022/11/30 07:36:26;;;;;;;7.18;6.47;;;18.20;58.60;;;;;;5068286;28;45036;-61
2022/11/30 07:38:54;;;;;;;6.65;6.05;;;18.20;58.80;;;;;;5076308;28;43835;-60
2022/11/30 07:41:22;;;;;;;7.55;6.75;;;18.20;58.80;;;;;;5081191;27;43409;-60
2022/11/30 07:43:49;;;;;;;7.50;6.70;;;18.20;58.80;;;;;;5071077;27;43493;-61
2022/11/30 07:46:17;;;;;;;7.45;6.75;;;18.20;58.80;;;;;;5068383;28;44781;-61
2022/11/30 07:48:46;;;;;;;7.72;6.95;;;18.20;58.70;;;;;;5075854;28;44137;-61
2022/11/30 07:51:19;;;;;;;7.32;6.50;;;18.20;58.80;;;;;;5073533;27;43418;-60
2022/11/30 07:53:48;;;;;;;7.25;6.47;;;18.20;58.80;;;;;;5077796;28;43561;-61
2022/11/30 07:56:18;;;;;;;8.10;7.03;;;18.30;58.70;;;;;;5068546;27;44702;-61
2022/11/30 07:58:46;;;;;;;8.70;7.50;;;18.30;58.70;;;;;;5079674;27;43519;-61
2022/11/30 08:01:16;;;;;;;8.00;7.20;;;18.30;58.70;;;;;;5071478;27;43487;-61
2022/11/30 08:03:44;;;;;;;10.50;7.47;;;18.30;58.60;;;;;;5075375;28;43513;-60
2022/11/30 08:06:15;;;;;;;8.98;6.80;;;18.40;58.70;;;;;;5074687;28;43869;-61
2022/11/30 08:08:44;;;;;;;7.90;7.20;;;18.50;58.70;;;;;;5079539;27;43958;-61
2022/11/30 08:11:14;;;;;;;7.90;7.10;;;18.60;58.70;;;;;;5081794;27;44053;-61
2022/11/30 08:13:42;;;;;;;8.18;7.38;;;18.70;58.50;;;;;;5078605;28;43527;-60
2022/11/30 08:16:16;;;;;;;7.95;7.15;;;18.80;58.30;;;;;;5078325;27;44247;-60
2022/11/30 08:18:44;;;;;;;7.80;7.03;;;18.90;58.20;;;;;;5079996;27;43706;-60
2022/11/30 08:21:13;;;;;;;7.63;6.60;;;19.00;58.10;;;;;;5077558;27;43468;-60
2022/11/30 08:24:02;;;;;;;7.85;7.05;;;19.10;57.90;;;;;;5075644;28;43968;-60
2022/11/30 08:26:32;;;;;;;7.10;6.40;;;19.20;57.80;;;;;;5077603;28;44942;-60
2022/11/30 08:29:00;;;;;;;7.45;6.75;;;19.20;57.80;;;;;;5077115;27;43991;-61
2022/11/30 08:31:34;;;;;;;8.88;7.22;;;19.30;57.80;;;;;;5079218;28;43463;-61
2022/11/30 08:34:10;;;;;;;8.18;7.32;;;19.40;57.70;;;;;;5080925;27;43415;-60
2022/11/30 08:36:39;;;;;;;7.75;6.75;;;19.40;57.70;;;;;;5079416;27;44045;-60
2022/11/30 08:39:16;;;;;;;8.68;7.07;;;19.50;57.40;;;;;;5077851;28;43680;-61
2022/11/30 08:41:44;;;;;;;12.65;7.50;;;19.60;57.40;;;;;;5079035;28;43481;-61
2022/11/30 08:44:11;;;;;;;10.10;7.18;;;19.70;57.50;;;;;;5077762;27;43503;-60
2022/11/30 08:46:39;;;;;;;9.85;6.78;;;19.70;57.40;;;;;;5079071;27;44718;-60
2022/11/30 08:49:19;;;;;;;7.35;6.28;;;19.80;57.40;;;;;;5076136;28;44089;-60
2022/11/30 08:51:51;;;;;;;8.48;7.28;;;19.90;57.40;;;;;;5076715;27;43649;-60
2022/11/30 08:54:41;;;;;;;7.38;6.68;;;20.10;57.40;;;;;;5076521;27;43525;-60
2022/11/30 08:57:09;;;;;;;8.35;7.45;;;20.20;57.30;;;;;;5078073;28;45064;-60
2022/11/30 08:59:36;;;;;;;8.23;7.20;;;20.30;57.30;;;;;;5078897;27;43732;-60
2022/11/30 09:02:04;;;;;;;8.00;7.30;;;20.50;57.10;;;;;;5079575;27;43416;-60
2022/11/30 09:04:32;;;;;;;8.55;6.70;;;20.60;56.90;;;;;;5077840;27;43595;-60
2022/11/30 09:06:59;;;;;;;8.30;7.47;;;20.70;56.70;;;;;;5078270;27;44970;-61
2022/11/30 09:09:27;;;;;;;8.23;6.70;;;20.80;56.70;;;;;;5078786;28;43660;-62
2022/11/30 09:11:55;;;;;;;7.88;7.05;;;21.00;57.00;;;;;;5081427;27;43486;-62
2022/11/30 09:14:22;;;;;;;7.63;6.03;;;21.20;56.90;;;;;;5080040;27;43684;-63
2022/11/30 09:16:49;;;;;;;8.95;7.03;;;21.30;56.60;;;;;;5077811;28;44980;-62
2022/11/30 09:19:17;;;;;;;11.75;7.63;;;21.40;56.40;;;;;;5079187;27;44005;-62
2022/11/30 09:21:44;;;;;;;8.20;7.15;;;21.50;56.50;;;;;;5083613;27;43454;-62
2022/11/30 09:24:19;;;;;;;7.55;6.63;;;21.60;56.20;;;;;;5083595;27;43388;-62
2022/11/30 09:26:46;;;;;;;9.90;7.47;;;21.70;56.20;;;;;;5082255;27;44702;-63
2022/11/30 09:29:14;;;;;;;8.77;7.47;;;21.80;55.90;;;;;;5082065;27;43727;-62
2022/11/30 09:31:41;;;;;;;7.60;6.70;;;21.80;55.50;;;;;;5082087;28;43462;-62
2022/11/30 09:34:11;;;;;;;8.20;7.32;;;22.00;55.40;;;;;;5079336;27;43450;-61
2022/11/30 09:36:38;;;;;;;7.93;7.13;;;22.10;55.10;;;;;;5080830;27;44691;-61
2022/11/30 09:39:08;;;;;;;8.38;7.20;;;22.10;55.40;;;;;;5080493;27;43489;-61
2022/11/30 09:42:23;;;;;;;9.50;7.40;;;22.20;55.00;;;;;;5080322;27;43404;-61
2022/11/30 09:45:06;;;;;;;9.10;7.40;;;22.30;54.90;;;;;;5079743;28;43546;-61
2022/11/30 09:47:58;;;;;;;8.70;7.75;;;22.30;54.80;;;;;;5075332;28;43886;-60
2022/11/30 09:50:30;;;;;;;8.57;7.68;;;22.40;55.00;;;;;;5080629;28;43558;-61
2022/11/30 09:53:04;;;;;;;8.85;7.47;;;22.40;54.80;;;;;;5080425;28;43467;-60
2022/11/30 09:55:40;;;;;;;8.13;7.32;;;22.50;54.80;;;;;;5078968;27;44044;-61
2022/11/30 09:58:17;;;;;;;9.63;7.43;;;22.60;55.00;;;;;;5078028;28;45300;-61
2022/11/30 10:00:45;;;;;;;8.10;7.30;;;22.60;54.70;;;;;;5080470;27;43997;-61
2022/11/30 10:03:12;;;;;;;8.75;7.88;;;22.70;54.50;;;;;;5077209;27;43399;-61
2022/11/30 10:05:49;;;;;;;7.90;6.95;;;22.70;54.40;;;;;;5087727;27;43465;-61
2022/11/30 10:09:01;;;;;;;8.18;7.35;;;22.80;54.30;;;;;;5081344;27;44261;-61
2022/11/30 10:11:41;;;;;;;8.50;7.38;;;22.90;54.30;;;;;;5081231;27;43381;-61
2022/11/30 10:14:17;;;;;;;8.25;7.45;;;23.00;54.00;;;;;;5080656;27;43469;-61
2022/11/30 10:16:56;;;;;;;8.68;7.40;;;23.00;54.10;;;;;;5080371;27;43541;-61
2022/11/30 10:19:57;;;;;;;7.90;7.10;;;23.00;53.90;;;;;;5077703;28;44659;-59
2022/11/30 10:23:02;;;;;;;8.15;7.35;;;23.00;53.90;;;;;;5077125;27;43399;-59
2022/11/30 10:25:52;;;;;;;9.35;7.78;;;23.00;53.80;;;;;;5064204;28;43591;-60
2022/11/30 10:28:40;;;;;;;8.35;7.43;;;23.00;54.00;;;;;;5077941;27;43567;-59
2022/11/30 10:31:15;;;;;;;9.85;8.02;;;23.00;53.90;;;;;;5080417;28;44991;-59
2022/11/30 10:33:52;;;;;;;8.77;7.70;;;22.90;54.00;;;;;;5081218;27;43970;-59
2022/11/30 10:36:25;;;;;;;8.90;7.78;;;22.90;54.00;;;;;;5081263;28;43398;-59
2022/11/30 10:39:01;;;;;;;8.73;7.82;;;22.90;54.00;;;;;;5080333;28;43524;-59
2022/11/30 10:41:36;;;;;;;9.88;8.75;;;22.80;54.00;;;;;;5080808;28;44067;-59
2022/11/30 10:44:21;;;;;;;10.65;8.70;;;22.80;54.10;;;;;;5078102;28;43567;-59
2022/11/30 10:47:04;;;;;;;9.80;8.80;;;22.80;54.20;;;;;;5080191;28;43411;-59
2022/11/30 10:49:33;;;;;;;9.68;8.32;;;22.70;54.30;;;;;;5079840;28;43584;-59
2022/11/30 10:52:06;;;;;;;10.63;9.02;;;22.70;54.40;;;;;;5080394;28;44918;-59
2022/11/30 10:54:35;;;;;;;9.32;8.32;;;22.60;54.50;;;;;;5082519;27;44357;-59
2022/11/30 10:57:04;;;;;;;11.35;8.70;;;22.60;54.60;;;;;;5082457;28;43519;-59
2022/11/30 10:59:44;;;;;;;9.23;8.27;;;22.60;54.70;;;;;;5080379;27;43670;-59
2022/11/30 11:02:36;;;;;;;9.95;8.60;;;22.50;54.70;;;;;;5079011;27;43862;-59
2022/11/30 11:05:15;;;;;;;10.45;8.48;;;22.50;54.90;;;;;;5067133;28;43519;-59
2022/11/30 11:07:54;;;;;;;9.68;8.45;;;22.40;54.90;;;;;;5077604;27;43469;-59
2022/11/30 11:10:42;;;;;;;10.80;8.95;;;22.40;55.00;;;;;;5080753;27;43533;-59
2022/11/30 11:13:40;;;;;;;10.68;8.98;;;22.40;55.00;;;;;;5077440;27;43800;-59
2022/11/30 11:16:10;;;;;;;10.30;9.13;;;22.30;55.10;;;;;;5075011;28;43981;-58
2022/11/30 11:18:55;;;;;;;9.27;8.00;;;22.30;55.20;;;;;;5078979;28;43391;-58
2022/11/30 11:21:23;;;;;;;9.65;8.65;;;22.30;55.30;;;;;;5079918;28;43596;-59
2022/11/30 11:23:56;;;;;;;9.98;8.55;;;22.20;55.30;;;;;;5079705;27;43920;-58
2022/11/30 11:26:28;;;;;;;9.70;8.57;;;22.20;55.40;;;;;;5075250;28;43710;-58
2022/11/30 11:29:00;;;;;;;9.98;8.95;;;22.20;55.50;;;;;;5077999;27;43455;-58
2022/11/30 11:31:42;;;;;;;10.82;8.95;;;22.20;56.20;;;;;;5077665;27;43420;-59
2022/11/30 11:34:39;;;;;;;9.18;8.20;;;22.10;56.10;;;;;;5078615;28;44710;-58
2022/11/30 11:37:13;;;;;;;9.65;8.38;;;22.10;55.50;;;;;;5071697;28;43912;-59
2022/11/30 11:39:41;;;;;;;9.80;8.45;;;22.10;55.60;;;;;;5079654;27;43582;-59
2022/11/30 11:42:20;;;;;;;10.15;9.02;;;22.10;55.70;;;;;;5078365;28;43368;-59
2022/11/30 11:44:54;;;;;;;9.88;8.82;;;22.10;55.50;;;;;;5078629;28;44743;-59
2022/11/30 11:47:31;;;;;;;9.90;8.48;;;22.10;55.50;;;;;;5075834;28;43724;-59
2022/11/30 11:50:11;;;;;;;9.50;8.55;;;22.00;55.50;;;;;;5077143;28;43422;-59
2022/11/30 11:52:39;;;;;;;9.73;8.40;;;22.00;55.60;;;;;;5073875;28;43485;-59
2022/11/30 11:55:15;;;;;;;9.73;8.50;;;22.00;56.30;;;;;;5077378;27;44692;-59
2022/11/30 11:57:49;;;;;;;9.60;8.57;;;21.90;55.60;;;;;;5080451;28;43679;-59
2022/11/30 12:00:19;;;;;;;10.70;8.75;;;21.90;55.80;;;;;;5079308;28;43481;-59
2022/11/30 12:03:14;;;;;;;9.52;8.52;;;21.90;55.80;;;;;;5077503;28;43452;-59
2022/11/30 12:06:02;;;;;;;9.98;8.63;;;21.90;55.90;;;;;;5077097;28;44868;-58
2022/11/30 12:09:01;;;;;;;10.07;8.68;;;21.90;55.80;;;;;;5075769;28;43815;-58
2022/11/30 12:11:49;;;;;;;9.50;8.50;;;21.90;56.30;;;;;;5072925;28;44085;-59
2022/11/30 12:14:18;;;;;;;9.70;8.70;;;21.90;55.60;;;;;;5076231;28;43440;-58
2022/11/30 12:17:23;;;;;;;8.85;7.95;;;21.90;55.60;;;;;;5076604;27;43792;-58
2022/11/30 12:19:54;;;;;;;9.38;8.45;;;21.90;55.80;;;;;;5079731;27;43987;-58
2022/11/30 12:22:42;;;;;;;;;;;21.80;55.80;;;;;;5078222;27;43428;-58
2022/11/30 12:25:48;;;;;;;9.57;8.40;;;21.70;55.90;;;;;;5077384;28;43483;-58
2022/11/30 12:28:27;;;;;;;9.43;8.52;;;21.70;55.90;;;;;;5057759;27;44981;-58
2022/11/30 12:31:24;;;;;;;9.40;8.48;;;21.70;55.80;;;;;;5077279;28;43433;-58
2022/11/30 12:34:00;;;;;;;9.48;8.55;;;21.70;55.80;;;;;;5076021;28;43459;-58
2022/11/30 12:36:33;;;;;;;10.60;9.48;;;21.60;55.80;;;;;;5078250;27;43578;-58
2022/11/30 12:39:29;;;;;;;9.88;8.88;;;21.60;55.80;;;;;;5073855;27;44711;-58
2022/11/30 12:42:24;;;;;;;9.73;8.77;;;21.60;55.80;;;;;;5076520;27;43999;-60
2022/11/30 12:45:04;;;;;;;9.93;8.93;;;21.60;56.60;;;;;;5081855;28;43529;-58
2022/11/30 12:48:25;;;;;;;9.20;8.30;;;21.50;56.00;;;;;;5082058;28;43621;-59
2022/11/30 12:51:05;;;;;;;10.35;9.25;;;21.50;56.20;;;;;;5038357;28;45025;-57
2022/11/30 12:54:02;;;;;;;10.25;9.18;;;21.40;56.10;;;;;;5038858;28;43747;-58
2022/11/30 12:56:53;;;;;;;10.27;9.18;;;21.40;56.20;;;;;;5072364;28;43958;-57
2022/11/30 12:59:29;;;;;;;10.98;9.88;;;21.40;56.30;;;;;;5075555;28;43529;-57
2022/11/30 13:02:38;;;;;;;10.43;9.32;;;21.40;56.30;;;;;;5080702;28;44678;-57
2022/11/30 13:05:14;;;;;;;9.38;8.38;;;21.30;56.30;;;;;;5074760;27;43715;-57
2022/11/30 13:07:56;;;;;;;9.48;8.57;;;21.30;56.40;;;;;;5077708;28;43533;-57
2022/11/30 13:10:30;;;;;;;9.57;8.48;;;21.30;56.30;;;;;;5082023;27;43564;-58
2022/11/30 13:13:00;;;;;;;11.77;9.90;;;21.30;56.50;;;;;;5082017;27;44986;-57
2022/11/30 13:15:31;;;;;;;10.27;9.23;;;21.30;56.40;;;;;;5082168;27;44095;-58
2022/11/30 13:18:00;;;;;;;10.77;9.63;;;21.30;56.40;;;;;;5081558;27;43472;-58